tititudorancea.com
Station Historical Data
Daily Summary for November 10, 2018 Units:  Both    English   Metric
« Previous Day
Next Day »
Daily Weekly Monthly Yearly Custom
  High: Low: Average:
Temperature: TemperatureF °F /  -17.8 °C 42.5 °F /  5.8 °C 54.4 °F /  12.4 °C
Dew Point: DewpointF °F /  -17.8 °C 40.2 °F /  4.6 °C 44.8 °F /  7.1 °C
Humidity: Humidity % 46 % 72 %
Wind Speed: WindSpeedMPH mph /  0 km/h - 4.6 mph /  7.4 km/h
Wind Gust: WindSpeedGustMPH mph /  0 km/h - -
Wind:- - SW
Pressure: PressureIn in /  0 hPa 30.02 in /  1016.5 hPa -
Precipitation: 0.00 in /  0 mm    
Historical Graphs
 
 
Ararat weather Find more about Weather in Ararat, AU


 



 


Tabular Data for November 10, 2018
Time Temperature Dew Point Pressure Wind Wind Speed Wind Gust Humidity Rainfall Rate (Hourly)
TemperatureF °F /  -17.8 °C DewpointF °F /  -17.8 °C PressureIn in /  0 hPa Calm     Humidity % HourlyPrecipIn in /  0 mm
00:04 47.1 °F /  8.4 °C 43.7 °F /  6.5 °C 30.06 in /  1017.8 hPa Calm     88 % 0.00 in /  0 mm
00:09 46.9 °F /  8.3 °C 43.5 °F /  6.4 °C 30.06 in /  1017.8 hPa Calm     88 % 0.00 in /  0 mm
00:14 46.7 °F /  8.2 °C 43.3 °F /  6.3 °C 30.06 in /  1017.8 hPa Calm     88 % 0.00 in /  0 mm
00:19 46.6 °F /  8.1 °C 43.2 °F /  6.2 °C 30.06 in /  1017.8 hPa Calm     88 % 0.00 in /  0 mm
00:24 46.4 °F /  8 °C 43.3 °F /  6.3 °C 30.06 in /  1017.8 hPa Calm     89 % 0.00 in /  0 mm
00:29 46.4 °F /  8 °C 43.3 °F /  6.3 °C 30.06 in /  1017.8 hPa Calm     89 % 0.00 in /  0 mm
00:34 46.3 °F /  7.9 °C 43.2 °F /  6.2 °C 30.06 in /  1017.8 hPa Calm     89 % 0.00 in /  0 mm
00:39 46.3 °F /  7.9 °C 43.5 °F /  6.4 °C 30.06 in /  1017.8 hPa Calm     90 % 0.00 in /  0 mm
00:44 46.2 °F /  7.9 °C 43.4 °F /  6.3 °C 30.05 in /  1017.5 hPa Calm     90 % 0.00 in /  0 mm
00:49 46.2 °F /  7.9 °C 43.4 °F /  6.3 °C 30.06 in /  1017.8 hPa Calm     90 % 0.00 in /  0 mm
00:54 46.2 °F /  7.9 °C 43.4 °F /  6.3 °C 30.06 in /  1017.8 hPa Calm     90 % 0.00 in /  0 mm
00:59 45.8 °F /  7.7 °C 42.7 °F /  5.9 °C 30.06 in /  1017.8 hPa Calm     89 % 0.00 in /  0 mm
01:04 45.7 °F /  7.6 °C 42.9 °F /  6.1 °C 30.06 in /  1017.8 hPa Calm     90 % 0.00 in /  0 mm
01:09 45.7 °F /  7.6 °C 42.9 °F /  6.1 °C 30.06 in /  1017.8 hPa Calm     90 % 0.00 in /  0 mm
01:14 45.6 °F /  7.6 °C 42.8 °F /  6 °C 30.05 in /  1017.5 hPa Calm     90 % 0.00 in /  0 mm
01:19 45.3 °F /  7.4 °C 42.5 °F /  5.8 °C 30.05 in /  1017.5 hPa Calm     90 % 0.00 in /  0 mm
01:24 45.1 °F /  7.3 °C 42.3 °F /  5.7 °C 30.05 in /  1017.5 hPa Calm     90 % 0.00 in /  0 mm
01:29 44.8 °F /  7.1 °C 42.0 °F /  5.6 °C 30.05 in /  1017.5 hPa Calm     90 % 0.00 in /  0 mm
01:34 44.6 °F /  7 °C 41.8 °F /  5.4 °C 30.05 in /  1017.5 hPa Calm     90 % 0.00 in /  0 mm
01:39 44.4 °F /  6.9 °C 41.7 °F /  5.4 °C 30.05 in /  1017.5 hPa Calm     90 % 0.00 in /  0 mm
01:44 44.2 °F /  6.8 °C 41.5 °F /  5.3 °C 30.04 in /  1017.2 hPa Calm     90 % 0.00 in /  0 mm
01:49 44.1 °F /  6.7 °C 41.6 °F /  5.3 °C 30.04 in /  1017.2 hPa Calm     91 % 0.00 in /  0 mm
01:54 44.1 °F /  6.7 °C 41.6 °F /  5.3 °C 30.04 in /  1017.2 hPa Calm     91 % 0.00 in /  0 mm
01:59 44.0 °F /  6.7 °C 41.5 °F /  5.3 °C 30.04 in /  1017.2 hPa Calm     91 % 0.00 in /  0 mm
02:04 44.0 °F /  6.7 °C 41.5 °F /  5.3 °C 30.04 in /  1017.2 hPa Calm     91 % 0.00 in /  0 mm
02:09 44.1 °F /  6.7 °C 41.6 °F /  5.3 °C 30.04 in /  1017.2 hPa Calm     91 % 0.00 in /  0 mm
02:14 44.1 °F /  6.7 °C 41.6 °F /  5.3 °C 30.04 in /  1017.2 hPa Calm     91 % 0.00 in /  0 mm
02:19 43.8 °F /  6.6 °C 41.3 °F /  5.2 °C 30.04 in /  1017.2 hPa Calm     91 % 0.00 in /  0 mm
02:24 43.5 °F /  6.4 °C 41.0 °F /  5 °C 30.04 in /  1017.2 hPa Calm     91 % 0.00 in /  0 mm
02:29 43.2 °F /  6.2 °C 40.8 °F /  4.9 °C 30.04 in /  1017.2 hPa Calm     91 % 0.00 in /  0 mm
02:34 42.9 °F /  6.1 °C 40.5 °F /  4.7 °C 30.04 in /  1017.2 hPa Calm     91 % 0.00 in /  0 mm
02:39 42.8 °F /  6 °C 40.6 °F /  4.8 °C 30.04 in /  1017.2 hPa Calm     92 % 0.00 in /  0 mm
02:44 42.8 °F /  6 °C 40.6 °F /  4.8 °C 30.04 in /  1017.2 hPa Calm     92 % 0.00 in /  0 mm
02:49 42.7 °F /  5.9 °C 40.3 °F /  4.6 °C 30.04 in /  1017.2 hPa Calm     91 % 0.00 in /  0 mm
02:54 42.6 °F /  5.9 °C 40.2 °F /  4.6 °C 30.04 in /  1017.2 hPa Calm     91 % 0.00 in /  0 mm
02:59 42.5 °F /  5.8 °C 40.3 °F /  4.6 °C 30.04 in /  1017.2 hPa Calm     92 % 0.00 in /  0 mm
03:04 42.5 °F /  5.8 °C 40.3 °F /  4.6 °C 30.04 in /  1017.2 hPa Calm     92 % 0.00 in /  0 mm
03:09 42.6 °F /  5.9 °C 40.4 °F /  4.7 °C 30.03 in /  1016.8 hPa Calm     92 % 0.00 in /  0 mm
03:14 42.7 °F /  5.9 °C 40.5 °F /  4.7 °C 30.03 in /  1016.8 hPa Calm     92 % 0.00 in /  0 mm
03:19 42.9 °F /  6.1 °C 41.0 °F /  5 °C 30.03 in /  1016.8 hPa Calm     93 % 0.00 in /  0 mm
03:24 43.1 °F /  6.2 °C 41.2 °F /  5.1 °C 30.03 in /  1016.8 hPa Calm     93 % 0.00 in /  0 mm
03:29 43.3 °F /  6.3 °C 41.4 °F /  5.2 °C 30.04 in /  1017.2 hPa Calm     93 % 0.00 in /  0 mm
03:34 43.4 °F /  6.3 °C 41.5 °F /  5.3 °C 30.03 in /  1016.8 hPa Calm     93 % 0.00 in /  0 mm
03:39 43.5 °F /  6.4 °C 41.6 °F /  5.3 °C 30.03 in /  1016.8 hPa Calm     93 % 0.00 in /  0 mm
03:44 43.5 °F /  6.4 °C 41.3 °F /  5.2 °C 30.03 in /  1016.8 hPa Calm     92 % 0.00 in /  0 mm
03:49 43.3 °F /  6.3 °C 41.1 °F /  5.1 °C 30.03 in /  1016.8 hPa Calm     92 % 0.00 in /  0 mm
03:54 43.1 °F /  6.2 °C 40.9 °F /  4.9 °C 30.03 in /  1016.8 hPa Calm     92 % 0.00 in /  0 mm
03:59 43.1 °F /  6.2 °C 40.9 °F /  4.9 °C 30.03 in /  1016.8 hPa Calm     92 % 0.00 in /  0 mm
04:04 43.0 °F /  6.1 °C 40.8 °F /  4.9 °C 30.03 in /  1016.8 hPa Calm     92 % 0.00 in /  0 mm
04:09 42.9 °F /  6.1 °C 41.0 °F /  5 °C 30.03 in /  1016.8 hPa Calm     93 % 0.00 in /  0 mm
04:14 42.9 °F /  6.1 °C 41.0 °F /  5 °C 30.03 in /  1016.8 hPa Calm     93 % 0.00 in /  0 mm
04:19 43.0 °F /  6.1 °C 41.1 °F /  5.1 °C 30.03 in /  1016.8 hPa Calm     93 % 0.00 in /  0 mm
04:24 42.9 °F /  6.1 °C 41.0 °F /  5 °C 30.03 in /  1016.8 hPa Calm     93 % 0.00 in /  0 mm
04:29 42.8 °F /  6 °C 40.9 °F /  4.9 °C 30.03 in /  1016.8 hPa Calm     93 % 0.00 in /  0 mm
04:34 42.9 °F /  6.1 °C 41.0 °F /  5 °C 30.02 in /  1016.5 hPa Calm     93 % 0.00 in /  0 mm
04:39 43.0 °F /  6.1 °C 41.1 °F /  5.1 °C 30.02 in /  1016.5 hPa Calm     93 % 0.00 in /  0 mm
04:44 43.2 °F /  6.2 °C 41.3 °F /  5.2 °C 30.02 in /  1016.5 hPa SSW 1.2 mph /  1.9 km/h   93 % 0.00 in /  0 mm
04:49 43.2 °F /  6.2 °C 41.3 °F /  5.2 °C 30.02 in /  1016.5 hPa Calm     93 % 0.00 in /  0 mm
04:54 43.1 °F /  6.2 °C 41.2 °F /  5.1 °C 30.02 in /  1016.5 hPa Calm     93 % 0.00 in /  0 mm
04:59 43.2 °F /  6.2 °C 41.3 °F /  5.2 °C 30.02 in /  1016.5 hPa Calm     93 % 0.00 in /  0 mm
05:04 43.1 °F /  6.2 °C 41.2 °F /  5.1 °C 30.02 in /  1016.5 hPa Calm     93 % 0.00 in /  0 mm
05:09 43.1 °F /  6.2 °C 41.2 °F /  5.1 °C 30.02 in /  1016.5 hPa Calm     93 % 0.00 in /  0 mm
05:14 43.1 °F /  6.2 °C 41.2 °F /  5.1 °C 30.03 in /  1016.8 hPa Calm     93 % 0.00 in /  0 mm
05:19 43.1 °F /  6.2 °C 41.2 °F /  5.1 °C 30.02 in /  1016.5 hPa Calm     93 % 0.00 in /  0 mm
05:24 42.9 °F /  6.1 °C 41.0 °F /  5 °C 30.02 in /  1016.5 hPa Calm     93 % 0.00 in /  0 mm
05:29 42.9 °F /  6.1 °C 41.0 °F /  5 °C 30.02 in /  1016.5 hPa Calm     93 % 0.00 in /  0 mm
05:34 42.8 °F /  6 °C 40.9 °F /  4.9 °C 30.03 in /  1016.8 hPa Calm     93 % 0.00 in /  0 mm
05:39 42.7 °F /  5.9 °C 40.8 °F /  4.9 °C 30.03 in /  1016.8 hPa Calm     93 % 0.00 in /  0 mm
05:44 42.6 °F /  5.9 °C 40.7 °F /  4.8 °C 30.03 in /  1016.8 hPa Calm     93 % 0.00 in /  0 mm
05:49 42.6 °F /  5.9 °C 40.7 °F /  4.8 °C 30.03 in /  1016.8 hPa SSW 2.3 mph /  3.7 km/h 1.5 mph /  2.4 km/h 93 % 0.00 in /  0 mm
05:54 42.6 °F /  5.9 °C 40.7 °F /  4.8 °C 30.03 in /  1016.8 hPa SSW 2.3 mph /  3.7 km/h 0.1 mph /  0.2 km/h 93 % 0.00 in /  0 mm
05:59 42.6 °F /  5.9 °C 40.7 °F /  4.8 °C 30.03 in /  1016.8 hPa Calm     93 % 0.00 in /  0 mm
06:04 42.6 °F /  5.9 °C 40.7 °F /  4.8 °C 30.04 in /  1017.2 hPa Calm     93 % 0.00 in /  0 mm
06:09 42.6 °F /  5.9 °C 41.0 °F /  5 °C 30.04 in /  1017.2 hPa Calm     94 % 0.00 in /  0 mm
06:14 42.8 °F /  6 °C 41.2 °F /  5.1 °C 30.04 in /  1017.2 hPa Calm     94 % 0.00 in /  0 mm
06:19 42.7 °F /  5.9 °C 41.1 °F /  5.1 °C 30.04 in /  1017.2 hPa SSW 1.2 mph /  1.9 km/h 1.2 mph /  1.9 km/h 94 % 0.00 in /  0 mm
06:24 42.8 °F /  6 °C 41.2 °F /  5.1 °C 30.04 in /  1017.2 hPa Calm     94 % 0.00 in /  0 mm
06:29 42.9 °F /  6.1 °C 41.0 °F /  5 °C 30.05 in /  1017.5 hPa Calm     93 % 0.00 in /  0 mm
06:34 42.9 °F /  6.1 °C 41.3 °F /  5.2 °C 30.05 in /  1017.5 hPa Calm     94 % 0.00 in /  0 mm
06:39 42.8 °F /  6 °C 41.2 °F /  5.1 °C 30.05 in /  1017.5 hPa SSW 2.3 mph /  3.7 km/h   94 % 0.00 in /  0 mm
06:44 43.1 °F /  6.2 °C 41.5 °F /  5.3 °C 30.05 in /  1017.5 hPa Calm     94 % 0.00 in /  0 mm
06:49 43.5 °F /  6.4 °C 41.9 °F /  5.5 °C 30.05 in /  1017.5 hPa Calm     94 % 0.00 in /  0 mm
06:54 43.9 °F /  6.6 °C 42.3 °F /  5.7 °C 30.05 in /  1017.5 hPa Calm     94 % 0.00 in /  0 mm
06:59 44.1 °F /  6.7 °C 42.5 °F /  5.8 °C 30.06 in /  1017.8 hPa Calm     94 % 0.00 in /  0 mm
07:04 44.5 °F /  6.9 °C 43.2 °F /  6.2 °C 30.06 in /  1017.8 hPa Calm     95 % 0.00 in /  0 mm
07:09 45.0 °F /  7.2 °C 43.7 °F /  6.5 °C 30.06 in /  1017.8 hPa Calm     95 % 0.00 in /  0 mm
07:14 45.4 °F /  7.4 °C 44.1 °F /  6.7 °C 30.06 in /  1017.8 hPa Calm     95 % 0.00 in /  0 mm
07:19 46.1 °F /  7.8 °C 44.7 °F /  7.1 °C 30.07 in /  1018.2 hPa Calm     95 % 0.00 in /  0 mm
07:24 46.6 °F /  8.1 °C 45.2 °F /  7.3 °C 30.07 in /  1018.2 hPa Calm     95 % 0.00 in /  0 mm
07:29 46.7 °F /  8.2 °C 45.1 °F /  7.3 °C 30.06 in /  1017.8 hPa Calm     94 % 0.00 in /  0 mm
07:34 47.2 °F /  8.4 °C 45.8 °F /  7.7 °C 30.06 in /  1017.8 hPa Calm     95 % 0.00 in /  0 mm
07:39 47.7 °F /  8.7 °C 46.3 °F /  7.9 °C 30.06 in /  1017.8 hPa Calm     95 % 0.00 in /  0 mm
07:44 48.3 °F /  9.1 °C 46.9 °F /  8.3 °C 30.07 in /  1018.2 hPa SSW 2.0 mph /  3.2 km/h 1.5 mph /  2.4 km/h 95 % 0.00 in /  0 mm
07:49 48.9 °F /  9.4 °C 47.5 °F /  8.6 °C 30.06 in /  1017.8 hPa SSW 3.5 mph /  5.6 km/h 1.0 mph /  1.6 km/h 95 % 0.00 in /  0 mm
07:54 49.5 °F /  9.7 °C 47.8 °F /  8.8 °C 30.06 in /  1017.8 hPa SSW 3.5 mph /  5.6 km/h 2.2 mph /  3.5 km/h 94 % 0.00 in /  0 mm
07:59 50.0 °F /  10 °C 48.1 °F /  8.9 °C 30.07 in /  1018.2 hPa SSW 3.5 mph /  5.6 km/h 2.1 mph /  3.4 km/h 93 % 0.00 in /  0 mm
08:04 50.6 °F /  10.3 °C 48.7 °F /  9.3 °C 30.07 in /  1018.2 hPa SSW 3.5 mph /  5.6 km/h 1.6 mph /  2.6 km/h 93 % 0.00 in /  0 mm
08:09 51.3 °F /  10.7 °C 49.1 °F /  9.5 °C 30.07 in /  1018.2 hPa SSW 2.3 mph /  3.7 km/h 1.6 mph /  2.6 km/h 92 % 0.00 in /  0 mm
08:14 51.9 °F /  11.1 °C 49.4 °F /  9.7 °C 30.07 in /  1018.2 hPa SW 3.5 mph /  5.6 km/h 2.3 mph /  3.7 km/h 91 % 0.00 in /  0 mm
08:19 52.7 °F /  11.5 °C 49.5 °F /  9.7 °C 30.07 in /  1018.2 hPa SSW 3.5 mph /  5.6 km/h 2.6 mph /  4.2 km/h 89 % 0.00 in /  0 mm
08:24 53.4 °F /  11.9 °C 49.3 °F /  9.6 °C 30.07 in /  1018.2 hPa SSW 3.5 mph /  5.6 km/h 1.8 mph /  2.9 km/h 86 % 0.00 in /  0 mm
08:29 54.0 °F /  12.2 °C 49.0 °F /  9.4 °C 30.07 in /  1018.2 hPa SSW 3.5 mph /  5.6 km/h 1.2 mph /  1.9 km/h 83 % 0.00 in /  0 mm
08:34 54.7 °F /  12.6 °C 49.0 °F /  9.4 °C 30.07 in /  1018.2 hPa SSW 4.0 mph /  6.4 km/h 3.7 mph /  6 km/h 81 % 0.00 in /  0 mm
08:39 55.3 °F /  12.9 °C 48.6 °F /  9.2 °C 30.07 in /  1018.2 hPa SSW 3.5 mph /  5.6 km/h 1.2 mph /  1.9 km/h 78 % 0.00 in /  0 mm
08:44 55.7 °F /  13.2 °C 48.2 °F /  9 °C 30.08 in /  1018.5 hPa SSW 3.0 mph /  4.8 km/h 1.2 mph /  1.9 km/h 76 % 0.00 in /  0 mm
08:49 56.1 °F /  13.4 °C 48.3 °F /  9.1 °C 30.08 in /  1018.5 hPa SSW 3.5 mph /  5.6 km/h 2.8 mph /  4.5 km/h 75 % 0.00 in /  0 mm
08:54 56.5 °F /  13.6 °C 47.9 °F /  8.8 °C 30.08 in /  1018.5 hPa SSW 3.5 mph /  5.6 km/h 0.2 mph /  0.3 km/h 73 % 0.00 in /  0 mm
08:59 57.1 °F /  13.9 °C 47.8 °F /  8.8 °C 30.08 in /  1018.5 hPa SSW 6.0 mph /  9.7 km/h 4.3 mph /  6.9 km/h 71 % 0.00 in /  0 mm
09:04 57.1 °F /  13.9 °C 47.4 °F /  8.6 °C 30.08 in /  1018.5 hPa SSW 5.0 mph /  8 km/h 2.1 mph /  3.4 km/h 70 % 0.00 in /  0 mm
09:09 56.8 °F /  13.8 °C 47.1 °F /  8.4 °C 30.08 in /  1018.5 hPa SSW 8.1 mph /  13 km/h 4.4 mph /  7.1 km/h 70 % 0.00 in /  0 mm
09:14 56.4 °F /  13.6 °C 47.1 °F /  8.4 °C 30.08 in /  1018.5 hPa North 5.8 mph /  9.3 km/h 4.0 mph /  6.4 km/h 71 % 0.00 in /  0 mm
09:19 56.2 °F /  13.4 °C 47.3 °F /  8.5 °C 30.07 in /  1018.2 hPa SW 3.5 mph /  5.6 km/h 0.8 mph /  1.3 km/h 72 % 0.00 in /  0 mm
09:24 56.4 °F /  13.6 °C 47.5 °F /  8.6 °C 30.07 in /  1018.2 hPa SW 3.0 mph /  4.8 km/h 2.3 mph /  3.7 km/h 72 % 0.00 in /  0 mm
09:29 57.2 °F /  14 °C 47.5 °F /  8.6 °C 30.07 in /  1018.2 hPa North 3.5 mph /  5.6 km/h 3.1 mph /  5 km/h 70 % 0.00 in /  0 mm
09:34 58.2 °F /  14.6 °C 48.1 °F /  8.9 °C 30.07 in /  1018.2 hPa SW 6.0 mph /  9.7 km/h 3.8 mph /  6.1 km/h 69 % 0.00 in /  0 mm
09:39 57.7 °F /  14.3 °C 47.2 °F /  8.4 °C 30.07 in /  1018.2 hPa WSW 9.2 mph /  14.8 km/h 7.0 mph /  11.3 km/h 68 % 0.00 in /  0 mm
09:44 57.2 °F /  14 °C 46.7 °F /  8.2 °C 30.07 in /  1018.2 hPa West 3.5 mph /  5.6 km/h 2.6 mph /  4.2 km/h 68 % 0.00 in /  0 mm
09:49 57.7 °F /  14.3 °C 47.6 °F /  8.7 °C 30.07 in /  1018.2 hPa WSW 6.9 mph /  11.1 km/h 5.8 mph /  9.3 km/h 69 % 0.00 in /  0 mm
09:54 58.5 °F /  14.7 °C 47.6 °F /  8.7 °C 30.07 in /  1018.2 hPa WSW 8.0 mph /  12.9 km/h 4.5 mph /  7.2 km/h 67 % 0.00 in /  0 mm
09:59 59.1 °F /  15.1 °C 47.3 °F /  8.5 °C 30.07 in /  1018.2 hPa WSW 8.1 mph /  13 km/h 4.7 mph /  7.6 km/h 65 % 0.00 in /  0 mm
10:04 58.8 °F /  14.9 °C 47.1 °F /  8.4 °C 30.07 in /  1018.2 hPa North 10.4 mph /  16.7 km/h 7.8 mph /  12.6 km/h 65 % 0.00 in /  0 mm
10:09 58.8 °F /  14.9 °C 47.5 °F /  8.6 °C 30.07 in /  1018.2 hPa North 5.8 mph /  9.3 km/h 5.0 mph /  8 km/h 66 % 0.00 in /  0 mm
10:14 58.9 °F /  14.9 °C 47.6 °F /  8.7 °C 30.07 in /  1018.2 hPa West 6.0 mph /  9.7 km/h 3.9 mph /  6.3 km/h 66 % 0.00 in /  0 mm
10:19 59.0 °F /  15 °C 46.8 °F /  8.2 °C 30.07 in /  1018.2 hPa North 4.6 mph /  7.4 km/h 3.9 mph /  6.3 km/h 64 % 0.00 in /  0 mm
10:24 58.9 °F /  14.9 °C 47.2 °F /  8.4 °C 30.08 in /  1018.5 hPa West 9.2 mph /  14.8 km/h 4.4 mph /  7.1 km/h 65 % 0.00 in /  0 mm
10:29 59.4 °F /  15.2 °C 47.6 °F /  8.7 °C 30.07 in /  1018.2 hPa West 6.9 mph /  11.1 km/h 5.9 mph /  9.5 km/h 65 % 0.00 in /  0 mm
10:34 59.4 °F /  15.2 °C 47.2 °F /  8.4 °C 30.07 in /  1018.2 hPa WNW 9.2 mph /  14.8 km/h 7.5 mph /  12.1 km/h 64 % 0.00 in /  0 mm
10:39 58.9 °F /  14.9 °C 46.7 °F /  8.2 °C 30.08 in /  1018.5 hPa WNW 6.9 mph /  11.1 km/h 5.2 mph /  8.4 km/h 64 % 0.00 in /  0 mm
10:44 58.6 °F /  14.8 °C 46.9 °F /  8.3 °C 30.08 in /  1018.5 hPa WNW 3.5 mph /  5.6 km/h 2.7 mph /  4.3 km/h 65 % 0.00 in /  0 mm
10:49 59.0 °F /  15 °C 48.1 °F /  8.9 °C 30.08 in /  1018.5 hPa WNW 6.9 mph /  11.1 km/h 4.8 mph /  7.7 km/h 67 % 0.00 in /  0 mm
10:54 59.3 °F /  15.2 °C 47.5 °F /  8.6 °C 30.08 in /  1018.5 hPa WNW 4.6 mph /  7.4 km/h 2.4 mph /  3.9 km/h 65 % 0.00 in /  0 mm
10:59 59.8 °F /  15.4 °C 47.6 °F /  8.7 °C 30.08 in /  1018.5 hPa WNW 5.8 mph /  9.3 km/h 3.7 mph /  6 km/h 64 % 0.00 in /  0 mm
11:04 60.1 °F /  15.6 °C 47.9 °F /  8.8 °C 30.07 in /  1018.2 hPa WNW 4.0 mph /  6.4 km/h 3.6 mph /  5.8 km/h 64 % 0.00 in /  0 mm
11:09 60.2 °F /  15.7 °C 47.6 °F /  8.7 °C 30.07 in /  1018.2 hPa WNW 3.5 mph /  5.6 km/h 0.9 mph /  1.4 km/h 63 % 0.00 in /  0 mm
11:14 60.3 °F /  15.7 °C 47.2 °F /  8.4 °C 30.08 in /  1018.5 hPa North 8.1 mph /  13 km/h 6.2 mph /  10 km/h 62 % 0.00 in /  0 mm
11:19 60.5 °F /  15.8 °C 47.4 °F /  8.6 °C 30.07 in /  1018.2 hPa WNW 3.5 mph /  5.6 km/h 2.5 mph /  4 km/h 62 % 0.00 in /  0 mm
11:24 60.5 °F /  15.8 °C 47.4 °F /  8.6 °C 30.08 in /  1018.5 hPa WNW 8.1 mph /  13 km/h 1.6 mph /  2.6 km/h 62 % 0.00 in /  0 mm
11:29 60.4 °F /  15.8 °C 47.3 °F /  8.5 °C 30.08 in /  1018.5 hPa WNW 8.0 mph /  12.9 km/h 6.2 mph /  10 km/h 62 % 0.00 in /  0 mm
11:34 60.1 °F /  15.6 °C 47.5 °F /  8.6 °C 30.08 in /  1018.5 hPa North 8.1 mph /  13 km/h 5.6 mph /  9 km/h 63 % 0.00 in /  0 mm
11:39 59.9 °F /  15.5 °C 47.3 °F /  8.5 °C 30.08 in /  1018.5 hPa West 11.5 mph /  18.5 km/h 7.3 mph /  11.7 km/h 63 % 0.00 in /  0 mm
11:44 60.4 °F /  15.8 °C 47.7 °F /  8.7 °C 30.08 in /  1018.5 hPa West 3.5 mph /  5.6 km/h 2.1 mph /  3.4 km/h 63 % 0.00 in /  0 mm
11:49 62.1 °F /  16.7 °C 46.2 °F /  7.9 °C 30.07 in /  1018.2 hPa West 9.2 mph /  14.8 km/h 5.8 mph /  9.3 km/h 56 % 0.00 in /  0 mm
11:54 62.8 °F /  17.1 °C 47.8 °F /  8.8 °C 30.08 in /  1018.5 hPa West 6.9 mph /  11.1 km/h 4.9 mph /  7.9 km/h 58 % 0.00 in /  0 mm
11:59 62.7 °F /  17.1 °C 47.2 °F /  8.4 °C 30.08 in /  1018.5 hPa West 9.2 mph /  14.8 km/h 6.7 mph /  10.8 km/h 57 % 0.00 in /  0 mm
12:04 62.0 °F /  16.7 °C 47.0 °F /  8.3 °C 30.07 in /  1018.2 hPa North 8.1 mph /  13 km/h 4.6 mph /  7.4 km/h 58 % 0.00 in /  0 mm
12:09 62.2 °F /  16.8 °C 47.2 °F /  8.4 °C 30.07 in /  1018.2 hPa West 3.5 mph /  5.6 km/h 2.0 mph /  3.2 km/h 58 % 0.00 in /  0 mm
12:14 63.2 °F /  17.3 °C 47.7 °F /  8.7 °C 30.07 in /  1018.2 hPa West 6.9 mph /  11.1 km/h 4.9 mph /  7.9 km/h 57 % 0.00 in /  0 mm
12:19 62.2 °F /  16.8 °C 46.8 °F /  8.2 °C 30.07 in /  1018.2 hPa WSW 11.5 mph /  18.5 km/h 5.7 mph /  9.2 km/h 57 % 0.00 in /  0 mm
12:24 61.4 °F /  16.3 °C 46.5 °F /  8.1 °C 30.07 in /  1018.2 hPa WSW 6.9 mph /  11.1 km/h 4.7 mph /  7.6 km/h 58 % 0.00 in /  0 mm
12:29 61.3 °F /  16.3 °C 46.4 °F /  8 °C 30.07 in /  1018.2 hPa West 6.9 mph /  11.1 km/h 4.2 mph /  6.8 km/h 58 % 0.00 in /  0 mm
12:34 61.3 °F /  16.3 °C 46.4 °F /  8 °C 30.07 in /  1018.2 hPa WSW 6.9 mph /  11.1 km/h 3.8 mph /  6.1 km/h 58 % 0.00 in /  0 mm
12:39 61.9 °F /  16.6 °C 46.0 °F /  7.8 °C 30.07 in /  1018.2 hPa West 3.0 mph /  4.8 km/h 1.4 mph /  2.3 km/h 56 % 0.00 in /  0 mm
12:44 62.4 °F /  16.9 °C 46.0 °F /  7.8 °C 30.07 in /  1018.2 hPa WSW 8.1 mph /  13 km/h 3.8 mph /  6.1 km/h 55 % 0.00 in /  0 mm
12:49 62.5 °F /  16.9 °C 47.1 °F /  8.4 °C 30.07 in /  1018.2 hPa WSW 5.0 mph /  8 km/h 3.8 mph /  6.1 km/h 57 % 0.00 in /  0 mm
12:54 63.2 °F /  17.3 °C 46.3 °F /  7.9 °C 30.07 in /  1018.2 hPa West 2.3 mph /  3.7 km/h 0.5 mph /  0.8 km/h 54 % 0.00 in /  0 mm
12:59 63.7 °F /  17.6 °C 46.7 °F /  8.2 °C 30.07 in /  1018.2 hPa West 11.0 mph /  17.7 km/h 8.3 mph /  13.4 km/h 54 % 0.00 in /  0 mm
13:04 63.2 °F /  17.3 °C 46.3 °F /  7.9 °C 30.07 in /  1018.2 hPa West 8.1 mph /  13 km/h 5.8 mph /  9.3 km/h 54 % 0.00 in /  0 mm
13:09 63.3 °F /  17.4 °C 46.9 °F /  8.3 °C 30.07 in /  1018.2 hPa North 9.2 mph /  14.8 km/h 5.1 mph /  8.2 km/h 55 % 0.00 in /  0 mm
13:14 63.5 °F /  17.5 °C 46.6 °F /  8.1 °C 30.07 in /  1018.2 hPa WSW 8.1 mph /  13 km/h 4.5 mph /  7.2 km/h 54 % 0.00 in /  0 mm
13:19 62.9 °F /  17.2 °C 46.0 °F /  7.8 °C 30.07 in /  1018.2 hPa WSW 6.9 mph /  11.1 km/h 5.2 mph /  8.4 km/h 54 % 0.00 in /  0 mm
13:24 63.2 °F /  17.3 °C 46.8 °F /  8.2 °C 30.06 in /  1017.8 hPa North 7.0 mph /  11.3 km/h 5.3 mph /  8.5 km/h 55 % 0.00 in /  0 mm
13:29 63.6 °F /  17.6 °C 47.1 °F /  8.4 °C 30.06 in /  1017.8 hPa North 3.0 mph /  4.8 km/h 2.7 mph /  4.3 km/h 55 % 0.00 in /  0 mm
13:34 64.2 °F /  17.9 °C 48.2 °F /  9 °C 30.06 in /  1017.8 hPa SW 6.9 mph /  11.1 km/h 6.8 mph /  10.9 km/h 56 % 0.00 in /  0 mm
13:39 63.9 °F /  17.7 °C 46.4 °F /  8 °C 30.06 in /  1017.8 hPa SW 10.4 mph /  16.7 km/h 5.6 mph /  9 km/h 53 % 0.00 in /  0 mm
13:44 63.4 °F /  17.4 °C 46.0 °F /  7.8 °C 30.06 in /  1017.8 hPa North 11.5 mph /  18.5 km/h 7.3 mph /  11.7 km/h 53 % 0.00 in /  0 mm
13:49 63.1 °F /  17.3 °C 45.2 °F /  7.3 °C 30.06 in /  1017.8 hPa SW 9.2 mph /  14.8 km/h   52 % 0.00 in /  0 mm
13:54 64.0 °F /  17.8 °C 46.5 °F /  8.1 °C 30.06 in /  1017.8 hPa SW 10.4 mph /  16.7 km/h 6.1 mph /  9.8 km/h 53 % 0.00 in /  0 mm
13:59 64.0 °F /  17.8 °C 45.5 °F /  7.5 °C 30.06 in /  1017.8 hPa SW 11.5 mph /  18.5 km/h 4.5 mph /  7.2 km/h 51 % 0.00 in /  0 mm
14:04 63.4 °F /  17.4 °C 46.0 °F /  7.8 °C 30.06 in /  1017.8 hPa SSW 11.5 mph /  18.5 km/h 6.3 mph /  10.1 km/h 53 % 0.00 in /  0 mm
14:09 63.4 °F /  17.4 °C 46.5 °F /  8.1 °C 30.06 in /  1017.8 hPa SW 8.1 mph /  13 km/h 6.5 mph /  10.5 km/h 54 % 0.00 in /  0 mm
14:14 63.6 °F /  17.6 °C 46.1 °F /  7.8 °C 30.06 in /  1017.8 hPa SW 12.7 mph /  20.4 km/h 8.3 mph /  13.4 km/h 53 % 0.00 in /  0 mm
14:19 63.3 °F /  17.4 °C 45.9 °F /  7.7 °C 30.05 in /  1017.5 hPa SSW 11.5 mph /  18.5 km/h 9.8 mph /  15.8 km/h 53 % 0.00 in /  0 mm
14:24 63.6 °F /  17.6 °C 46.1 °F /  7.8 °C 30.05 in /  1017.5 hPa SSW 8.0 mph /  12.9 km/h 6.6 mph /  10.6 km/h 53 % 0.00 in /  0 mm
14:29 64.0 °F /  17.8 °C 46.5 °F /  8.1 °C 30.05 in /  1017.5 hPa SW 10.0 mph /  16.1 km/h 6.1 mph /  9.8 km/h 53 % 0.00 in /  0 mm
14:34 63.9 °F /  17.7 °C 45.9 °F /  7.7 °C 30.05 in /  1017.5 hPa North 10.0 mph /  16.1 km/h 4.9 mph /  7.9 km/h 52 % 0.00 in /  0 mm
14:39 64.4 °F /  18 °C 46.4 °F /  8 °C 30.05 in /  1017.5 hPa North 5.0 mph /  8 km/h 4.7 mph /  7.6 km/h 52 % 0.00 in /  0 mm
14:44 65.6 °F /  18.7 °C 46.5 °F /  8.1 °C 30.05 in /  1017.5 hPa WSW 11.5 mph /  18.5 km/h 6.8 mph /  10.9 km/h 50 % 0.00 in /  0 mm
14:49 65.5 °F /  18.6 °C 46.4 °F /  8 °C 30.05 in /  1017.5 hPa West 11.5 mph /  18.5 km/h 7.1 mph /  11.4 km/h 50 % 0.00 in /  0 mm
14:54 65.8 °F /  18.8 °C 46.1 °F /  7.8 °C 30.05 in /  1017.5 hPa West 10.4 mph /  16.7 km/h 7.9 mph /  12.7 km/h 49 % 0.00 in /  0 mm
14:59 65.7 °F /  18.7 °C 45.5 °F /  7.5 °C 30.05 in /  1017.5 hPa WSW 11.5 mph /  18.5 km/h 6.7 mph /  10.8 km/h 48 % 0.00 in /  0 mm
15:04 65.4 °F /  18.6 °C 46.3 °F /  7.9 °C 30.05 in /  1017.5 hPa SSW 8.0 mph /  12.9 km/h 6.2 mph /  10 km/h 50 % 0.00 in /  0 mm
15:09 65.1 °F /  18.4 °C 46.0 °F /  7.8 °C 30.05 in /  1017.5 hPa SW 8.1 mph /  13 km/h 5.8 mph /  9.3 km/h 50 % 0.00 in /  0 mm
15:14 65.2 °F /  18.4 °C 45.5 °F /  7.5 °C 30.04 in /  1017.2 hPa SW 9.2 mph /  14.8 km/h 6.9 mph /  11.1 km/h 49 % 0.00 in /  0 mm
15:19 65.0 °F /  18.3 °C 45.4 °F /  7.4 °C 30.04 in /  1017.2 hPa SW 11.5 mph /  18.5 km/h 7.2 mph /  11.6 km/h 49 % 0.00 in /  0 mm
15:24 65.2 °F /  18.4 °C 46.6 °F /  8.1 °C 30.04 in /  1017.2 hPa SSW 9.2 mph /  14.8 km/h 6.0 mph /  9.7 km/h 51 % 0.00 in /  0 mm
15:29 65.4 °F /  18.6 °C 45.2 °F /  7.3 °C 30.04 in /  1017.2 hPa SSW 6.0 mph /  9.7 km/h 5.3 mph /  8.5 km/h 48 % 0.00 in /  0 mm
15:34 65.5 °F /  18.6 °C 45.3 °F /  7.4 °C 30.04 in /  1017.2 hPa SSW 11.5 mph /  18.5 km/h 5.8 mph /  9.3 km/h 48 % 0.00 in /  0 mm
15:39 65.5 °F /  18.6 °C 44.7 °F /  7.1 °C 30.04 in /  1017.2 hPa SW 8.0 mph /  12.9 km/h 5.0 mph /  8 km/h 47 % 0.00 in /  0 mm
15:44 66.0 °F /  18.9 °C 45.2 °F /  7.3 °C 30.04 in /  1017.2 hPa WSW 10.0 mph /  16.1 km/h 8.1 mph /  13 km/h 47 % 0.00 in /  0 mm
15:49 65.6 °F /  18.7 °C 44.8 °F /  7.1 °C 30.04 in /  1017.2 hPa WSW 10.4 mph /  16.7 km/h 6.8 mph /  10.9 km/h 47 % 0.00 in /  0 mm
15:54 64.5 °F /  18.1 °C 45.4 °F /  7.4 °C 30.04 in /  1017.2 hPa SW 6.9 mph /  11.1 km/h 7.0 mph /  11.3 km/h 50 % 0.00 in /  0 mm
15:59 64.1 °F /  17.8 °C 45.6 °F /  7.6 °C 30.04 in /  1017.2 hPa SW 8.1 mph /  13 km/h 6.3 mph /  10.1 km/h 51 % 0.00 in /  0 mm
16:04 64.1 °F /  17.8 °C 45.1 °F /  7.3 °C 30.04 in /  1017.2 hPa SW 5.8 mph /  9.3 km/h 0.9 mph /  1.4 km/h 50 % 0.00 in /  0 mm
16:09 64.1 °F /  17.8 °C 45.1 °F /  7.3 °C 30.04 in /  1017.2 hPa SW 4.6 mph /  7.4 km/h 4.3 mph /  6.9 km/h 50 % 0.00 in /  0 mm
16:14 64.2 °F /  17.9 °C 45.2 °F /  7.3 °C 30.03 in /  1016.8 hPa SSW 5.0 mph /  8 km/h 4.6 mph /  7.4 km/h 50 % 0.00 in /  0 mm
16:19 64.8 °F /  18.2 °C 46.2 °F /  7.9 °C 30.03 in /  1016.8 hPa SSW 5.8 mph /  9.3 km/h 4.8 mph /  7.7 km/h 51 % 0.00 in /  0 mm
16:24 65.6 °F /  18.7 °C 45.9 °F /  7.7 °C 30.03 in /  1016.8 hPa SSW 5.8 mph /  9.3 km/h 5.6 mph /  9 km/h 49 % 0.00 in /  0 mm
16:29 65.7 °F /  18.7 °C 46.0 °F /  7.8 °C 30.03 in /  1016.8 hPa South 9.0 mph /  14.5 km/h 4.8 mph /  7.7 km/h 49 % 0.00 in /  0 mm
16:34 65.7 °F /  18.7 °C 45.5 °F /  7.5 °C 30.03 in /  1016.8 hPa South 5.8 mph /  9.3 km/h 1.7 mph /  2.7 km/h 48 % 0.00 in /  0 mm
16:39 66.0 °F /  18.9 °C 45.7 °F /  7.6 °C 30.03 in /  1016.8 hPa SSE 6.9 mph /  11.1 km/h 4.1 mph /  6.6 km/h 48 % 0.00 in /  0 mm
16:44 65.9 °F /  18.8 °C 45.1 °F /  7.3 °C 30.03 in /  1016.8 hPa SW 10.4 mph /  16.7 km/h 7.9 mph /  12.7 km/h 47 % 0.00 in /  0 mm
16:49 65.8 °F /  18.8 °C 45.6 °F /  7.6 °C 30.04 in /  1017.2 hPa SW 6.9 mph /  11.1 km/h 3.6 mph /  5.8 km/h 48 % 0.00 in /  0 mm
16:54 65.8 °F /  18.8 °C 45.0 °F /  7.2 °C 30.04 in /  1017.2 hPa SW 9.2 mph /  14.8 km/h 8.0 mph /  12.9 km/h 47 % 0.00 in /  0 mm
16:59 66.0 °F /  18.9 °C 44.6 °F /  7 °C 30.04 in /  1017.2 hPa SW 4.6 mph /  7.4 km/h 2.8 mph /  4.5 km/h 46 % 0.00 in /  0 mm
17:04 66.2 °F /  19 °C 45.9 °F /  7.7 °C 30.04 in /  1017.2 hPa SSW 10.4 mph /  16.7 km/h 5.2 mph /  8.4 km/h 48 % 0.00 in /  0 mm
17:09 66.1 °F /  18.9 °C 45.8 °F /  7.7 °C 30.04 in /  1017.2 hPa SSW 11.5 mph /  18.5 km/h 6.7 mph /  10.8 km/h 48 % 0.00 in /  0 mm
17:14 66.2 °F /  19 °C 45.9 °F /  7.7 °C 30.04 in /  1017.2 hPa SW 9.0 mph /  14.5 km/h 6.3 mph /  10.1 km/h 48 % 0.00 in /  0 mm
17:19 65.3 °F /  18.5 °C 45.6 °F /  7.6 °C 30.04 in /  1017.2 hPa SW 8.0 mph /  12.9 km/h 3.9 mph /  6.3 km/h 49 % 0.00 in /  0 mm
17:24 64.8 °F /  18.2 °C 45.7 °F /  7.6 °C 30.04 in /  1017.2 hPa SSW 9.2 mph /  14.8 km/h 6.3 mph /  10.1 km/h 50 % 0.00 in /  0 mm
17:29 64.9 °F /  18.3 °C 45.8 °F /  7.7 °C 30.04 in /  1017.2 hPa SSW 8.1 mph /  13 km/h 4.4 mph /  7.1 km/h 50 % 0.00 in /  0 mm
17:34 65.5 °F /  18.6 °C 46.4 °F /  8 °C 30.04 in /  1017.2 hPa SSW 6.0 mph /  9.7 km/h 3.6 mph /  5.8 km/h 50 % 0.00 in /  0 mm
17:39 65.8 °F /  18.8 °C 45.6 °F /  7.6 °C 30.04 in /  1017.2 hPa SSW 8.1 mph /  13 km/h 5.1 mph /  8.2 km/h 48 % 0.00 in /  0 mm
17:44 65.8 °F /  18.8 °C 45.6 °F /  7.6 °C 30.04 in /  1017.2 hPa SSW 9.2 mph /  14.8 km/h 7.0 mph /  11.3 km/h 48 % 0.00 in /  0 mm
17:49 65.7 °F /  18.7 °C 45.5 °F /  7.5 °C 30.04 in /  1017.2 hPa SSW 8.1 mph /  13 km/h 2.8 mph /  4.5 km/h 48 % 0.00 in /  0 mm
17:54 65.8 °F /  18.8 °C 45.6 °F /  7.6 °C 30.04 in /  1017.2 hPa SSW 12.7 mph /  20.4 km/h 7.7 mph /  12.4 km/h 48 % 0.00 in /  0 mm
17:59 65.2 °F /  18.4 °C 45.5 °F /  7.5 °C 30.04 in /  1017.2 hPa South 7.0 mph /  11.3 km/h 7.1 mph /  11.4 km/h 49 % 0.00 in /  0 mm
18:04 65.1 °F /  18.4 °C 46.5 °F /  8.1 °C 30.04 in /  1017.2 hPa SSW 4.6 mph /  7.4 km/h 4.1 mph /  6.6 km/h 51 % 0.00 in /  0 mm
18:09 65.3 °F /  18.5 °C 45.6 °F /  7.6 °C 30.04 in /  1017.2 hPa SSW 8.1 mph /  13 km/h 4.9 mph /  7.9 km/h 49 % 0.00 in /  0 mm
18:14 65.1 °F /  18.4 °C 45.5 °F /  7.5 °C 30.04 in /  1017.2 hPa SSW 12.7 mph /  20.4 km/h 10.4 mph /  16.7 km/h 49 % 0.00 in /  0 mm
18:19 64.9 °F /  18.3 °C 45.8 °F /  7.7 °C 30.04 in /  1017.2 hPa SSW 8.1 mph /  13 km/h 4.4 mph /  7.1 km/h 50 % 0.00 in /  0 mm
18:24 65.2 °F /  18.4 °C 45.5 °F /  7.5 °C 30.04 in /  1017.2 hPa South 11.5 mph /  18.5 km/h 7.3 mph /  11.7 km/h 49 % 0.00 in /  0 mm
18:29 65.2 °F /  18.4 °C 45.5 °F /  7.5 °C 30.04 in /  1017.2 hPa South 9.2 mph /  14.8 km/h 5.8 mph /  9.3 km/h 49 % 0.00 in /  0 mm
18:34 65.1 °F /  18.4 °C 45.5 °F /  7.5 °C 30.04 in /  1017.2 hPa South 9.2 mph /  14.8 km/h 5.3 mph /  8.5 km/h 49 % 0.00 in /  0 mm
18:39 64.9 °F /  18.3 °C 45.8 °F /  7.7 °C 30.04 in /  1017.2 hPa South 12.7 mph /  20.4 km/h 8.5 mph /  13.7 km/h 50 % 0.00 in /  0 mm
18:44 64.5 °F /  18.1 °C 46.0 °F /  7.8 °C 30.04 in /  1017.2 hPa South 11.5 mph /  18.5 km/h 5.6 mph /  9 km/h 51 % 0.00 in /  0 mm
18:49 64.4 °F /  18 °C 45.9 °F /  7.7 °C 30.04 in /  1017.2 hPa South 10.4 mph /  16.7 km/h 6.9 mph /  11.1 km/h 51 % 0.00 in /  0 mm
18:54 64.1 °F /  17.8 °C 45.6 °F /  7.6 °C 30.04 in /  1017.2 hPa SSW 11.5 mph /  18.5 km/h 9.2 mph /  14.8 km/h 51 % 0.00 in /  0 mm
18:59 64.0 °F /  17.8 °C 46.0 °F /  7.8 °C 30.04 in /  1017.2 hPa SSW 10.4 mph /  16.7 km/h 5.6 mph /  9 km/h 52 % 0.00 in /  0 mm
19:04 63.8 °F /  17.7 °C 46.3 °F /  7.9 °C 30.04 in /  1017.2 hPa South 9.2 mph /  14.8 km/h 6.8 mph /  10.9 km/h 53 % 0.00 in /  0 mm
19:09 63.5 °F /  17.5 °C 46.1 °F /  7.8 °C 30.04 in /  1017.2 hPa South 12.7 mph /  20.4 km/h 6.4 mph /  10.3 km/h 53 % 0.00 in /  0 mm
19:14 63.1 °F /  17.3 °C 46.7 °F /  8.2 °C 30.05 in /  1017.5 hPa South 9.2 mph /  14.8 km/h 4.2 mph /  6.8 km/h 55 % 0.00 in /  0 mm
19:19 62.8 °F /  17.1 °C 46.4 °F /  8 °C 30.05 in /  1017.5 hPa South 11.5 mph /  18.5 km/h 7.2 mph /  11.6 km/h 55 % 0.00 in /  0 mm
19:24 62.6 °F /  17 °C 46.7 °F /  8.2 °C 30.05 in /  1017.5 hPa South 11.5 mph /  18.5 km/h 5.5 mph /  8.9 km/h 56 % 0.00 in /  0 mm
19:25 62.6 °F /  17 °C 46.7 °F /  8.2 °C 30.05 in /  1017.5 hPa South 9.2 mph /  14.8 km/h 6.4 mph /  10.3 km/h 56 % 0.00 in /  0 mm
19:49 60.9 °F /  16.1 °C 46.5 °F /  8.1 °C 30.06 in /  1017.8 hPa SSW 9.2 mph /  14.8 km/h 5.6 mph /  9 km/h 59 % 0.00 in /  0 mm
19:54 60.6 °F /  15.9 °C 46.2 °F /  7.9 °C 30.06 in /  1017.8 hPa South 5.8 mph /  9.3 km/h 5.1 mph /  8.2 km/h 59 % 0.00 in /  0 mm
19:59 60.1 °F /  15.6 °C 46.6 °F /  8.1 °C 30.07 in /  1018.2 hPa South 5.8 mph /  9.3 km/h 4.2 mph /  6.8 km/h 61 % 0.00 in /  0 mm
20:04 59.7 °F /  15.4 °C 46.2 °F /  7.9 °C 30.07 in /  1018.2 hPa South 5.8 mph /  9.3 km/h 2.5 mph /  4 km/h 61 % 0.00 in /  0 mm
20:09 59.4 °F /  15.2 °C 46.4 °F /  8 °C 30.07 in /  1018.2 hPa South 3.5 mph /  5.6 km/h 2.8 mph /  4.5 km/h 62 % 0.00 in /  0 mm
20:14 59.0 °F /  15 °C 46.4 °F /  8 °C 30.07 in /  1018.2 hPa South 6.9 mph /  11.1 km/h 2.8 mph /  4.5 km/h 63 % 0.00 in /  0 mm
20:19 58.7 °F /  14.8 °C 46.5 °F /  8.1 °C 30.08 in /  1018.5 hPa South 4.6 mph /  7.4 km/h 4.4 mph /  7.1 km/h 64 % 0.00 in /  0 mm
20:24 58.5 °F /  14.7 °C 46.4 °F /  8 °C 30.08 in /  1018.5 hPa South 8.1 mph /  13 km/h 5.7 mph /  9.2 km/h 64 % 0.00 in /  0 mm
20:29 58.3 °F /  14.6 °C 46.6 °F /  8.1 °C 30.08 in /  1018.5 hPa South 4.6 mph /  7.4 km/h 4.2 mph /  6.8 km/h 65 % 0.00 in /  0 mm
20:34 58.0 °F /  14.4 °C 46.7 °F /  8.2 °C 30.08 in /  1018.5 hPa South 5.0 mph /  8 km/h 2.8 mph /  4.5 km/h 66 % 0.00 in /  0 mm
20:39 57.7 °F /  14.3 °C 46.4 °F /  8 °C 30.08 in /  1018.5 hPa South 4.0 mph /  6.4 km/h 3.5 mph /  5.6 km/h 66 % 0.00 in /  0 mm
20:44 57.4 °F /  14.1 °C 46.5 °F /  8.1 °C 30.08 in /  1018.5 hPa South 5.0 mph /  8 km/h 1.8 mph /  2.9 km/h 67 % 0.00 in /  0 mm
20:49 57.1 °F /  13.9 °C 46.6 °F /  8.1 °C 30.08 in /  1018.5 hPa South 3.5 mph /  5.6 km/h 1.3 mph /  2.1 km/h 68 % 0.00 in /  0 mm
20:54 56.6 °F /  13.7 °C 46.2 °F /  7.9 °C 30.08 in /  1018.5 hPa South 3.5 mph /  5.6 km/h 3.4 mph /  5.5 km/h 68 % 0.00 in /  0 mm
20:59 56.2 °F /  13.4 °C 46.2 °F /  7.9 °C 30.09 in /  1018.8 hPa South 4.0 mph /  6.4 km/h 3.0 mph /  4.8 km/h 69 % 0.00 in /  0 mm
21:04 55.9 °F /  13.3 °C 46.3 °F /  7.9 °C 30.09 in /  1018.8 hPa South 4.6 mph /  7.4 km/h 3.0 mph /  4.8 km/h 70 % 0.00 in /  0 mm
21:09 55.6 °F /  13.1 °C 46.3 °F /  7.9 °C 30.09 in /  1018.8 hPa South 4.6 mph /  7.4 km/h 2.4 mph /  3.9 km/h 71 % 0.00 in /  0 mm
21:14 55.3 °F /  12.9 °C 46.4 °F /  8 °C 30.09 in /  1018.8 hPa South 3.5 mph /  5.6 km/h 3.2 mph /  5.1 km/h 72 % 0.00 in /  0 mm
21:19 55.1 °F /  12.8 °C 46.2 °F /  7.9 °C 30.09 in /  1018.8 hPa South 5.0 mph /  8 km/h 3.5 mph /  5.6 km/h 72 % 0.00 in /  0 mm
21:24 54.9 °F /  12.7 °C 46.4 °F /  8 °C 30.09 in /  1018.8 hPa South 4.6 mph /  7.4 km/h 3.8 mph /  6.1 km/h 73 % 0.00 in /  0 mm
21:29 54.7 °F /  12.6 °C 46.2 °F /  7.9 °C 30.09 in /  1018.8 hPa South 3.5 mph /  5.6 km/h 2.7 mph /  4.3 km/h 73 % 0.00 in /  0 mm
21:34 54.5 °F /  12.5 °C 46.4 °F /  8 °C 30.09 in /  1018.8 hPa South 3.5 mph /  5.6 km/h 2.9 mph /  4.7 km/h 74 % 0.00 in /  0 mm
21:39 54.2 °F /  12.3 °C 46.1 °F /  7.8 °C 30.10 in /  1019.2 hPa South 6.9 mph /  11.1 km/h 4.1 mph /  6.6 km/h 74 % 0.00 in /  0 mm
21:44 53.9 °F /  12.2 °C 46.2 °F /  7.9 °C 30.10 in /  1019.2 hPa SSW 5.8 mph /  9.3 km/h 3.7 mph /  6 km/h 75 % 0.00 in /  0 mm
21:49 53.6 °F /  12 °C 46.2 °F /  7.9 °C 30.10 in /  1019.2 hPa South 4.6 mph /  7.4 km/h 3.7 mph /  6 km/h 76 % 0.00 in /  0 mm
21:54 53.4 °F /  11.9 °C 46.0 °F /  7.8 °C 30.10 in /  1019.2 hPa South 4.6 mph /  7.4 km/h 1.5 mph /  2.4 km/h 76 % 0.00 in /  0 mm
21:59 53.2 °F /  11.8 °C 45.8 °F /  7.7 °C 30.11 in /  1019.5 hPa South 3.5 mph /  5.6 km/h 0.5 mph /  0.8 km/h 76 % 0.00 in /  0 mm
22:04 53.0 °F /  11.7 °C 46.0 °F /  7.8 °C 30.11 in /  1019.5 hPa South 3.5 mph /  5.6 km/h 2.9 mph /  4.7 km/h 77 % 0.00 in /  0 mm
22:09 52.7 °F /  11.5 °C 45.7 °F /  7.6 °C 30.11 in /  1019.5 hPa South 3.5 mph /  5.6 km/h 1.8 mph /  2.9 km/h 77 % 0.00 in /  0 mm
22:14 52.5 °F /  11.4 °C 45.8 °F /  7.7 °C 30.11 in /  1019.5 hPa South 4.6 mph /  7.4 km/h 2.1 mph /  3.4 km/h 78 % 0.00 in /  0 mm
22:19 52.2 °F /  11.2 °C 45.9 °F /  7.7 °C 30.11 in /  1019.5 hPa South 4.6 mph /  7.4 km/h 2.0 mph /  3.2 km/h 79 % 0.00 in /  0 mm
22:24 52.1 °F /  11.2 °C 45.8 °F /  7.7 °C 30.11 in /  1019.5 hPa South 6.9 mph /  11.1 km/h 2.5 mph /  4 km/h 79 % 0.00 in /  0 mm
22:29 51.9 °F /  11.1 °C 45.6 °F /  7.6 °C 30.11 in /  1019.5 hPa South 4.6 mph /  7.4 km/h 2.5 mph /  4 km/h 79 % 0.00 in /  0 mm
22:34 51.8 °F /  11 °C 45.8 °F /  7.7 °C 30.11 in /  1019.5 hPa South 8.1 mph /  13 km/h 4.2 mph /  6.8 km/h 80 % 0.00 in /  0 mm
22:39 51.7 °F /  10.9 °C 45.7 °F /  7.6 °C 30.11 in /  1019.5 hPa South 3.5 mph /  5.6 km/h 2.6 mph /  4.2 km/h 80 % 0.00 in /  0 mm
22:44 51.6 °F /  10.9 °C 45.6 °F /  7.6 °C 30.11 in /  1019.5 hPa South 5.0 mph /  8 km/h 3.4 mph /  5.5 km/h 80 % 0.00 in /  0 mm
22:49 51.5 °F /  10.8 °C 45.5 °F /  7.5 °C 30.11 in /  1019.5 hPa South 4.6 mph /  7.4 km/h 3.5 mph /  5.6 km/h 80 % 0.00 in /  0 mm
22:54 51.4 °F /  10.8 °C 45.4 °F /  7.4 °C 30.11 in /  1019.5 hPa South 4.0 mph /  6.4 km/h 3.4 mph /  5.5 km/h 80 % 0.00 in /  0 mm
22:59 51.3 °F /  10.7 °C 45.3 °F /  7.4 °C 30.11 in /  1019.5 hPa South 5.0 mph /  8 km/h 3.8 mph /  6.1 km/h 80 % 0.00 in /  0 mm
23:04 51.1 °F /  10.6 °C 45.5 °F /  7.5 °C 30.11 in /  1019.5 hPa South 4.6 mph /  7.4 km/h 2.5 mph /  4 km/h 81 % 0.00 in /  0 mm
23:09 51.0 °F /  10.6 °C 45.4 °F /  7.4 °C 30.11 in /  1019.5 hPa South 6.0 mph /  9.7 km/h 4.5 mph /  7.2 km/h 81 % 0.00 in /  0 mm
23:14 50.9 °F /  10.5 °C 45.3 °F /  7.4 °C 30.11 in /  1019.5 hPa South 5.0 mph /  8 km/h 2.4 mph /  3.9 km/h 81 % 0.00 in /  0 mm
23:19 50.7 °F /  10.4 °C 45.1 °F /  7.3 °C 30.11 in /  1019.5 hPa South 4.6 mph /  7.4 km/h 2.1 mph /  3.4 km/h 81 % 0.00 in /  0 mm
23:24 50.6 °F /  10.3 °C 45.0 °F /  7.2 °C 30.11 in /  1019.5 hPa South 3.5 mph /  5.6 km/h 1.1 mph /  1.8 km/h 81 % 0.00 in /  0 mm
23:29 50.4 °F /  10.2 °C 44.8 °F /  7.1 °C 30.11 in /  1019.5 hPa South 3.5 mph /  5.6 km/h 1.9 mph /  3.1 km/h 81 % 0.00 in /  0 mm
23:34 50.2 °F /  10.1 °C 44.9 °F /  7.2 °C 30.11 in /  1019.5 hPa South 3.5 mph /  5.6 km/h 1.9 mph /  3.1 km/h 82 % 0.00 in /  0 mm
23:39 50.0 °F /  10 °C 44.7 °F /  7.1 °C 30.11 in /  1019.5 hPa South 2.3 mph /  3.7 km/h 1.5 mph /  2.4 km/h 82 % 0.00 in /  0 mm
23:44 49.8 °F /  9.9 °C 44.5 °F /  6.9 °C 30.10 in /  1019.2 hPa South 1.2 mph /  1.9 km/h 1.4 mph /  2.3 km/h 82 % 0.00 in /  0 mm
23:49 49.6 °F /  9.8 °C 44.3 °F /  6.8 °C 30.11 in /  1019.5 hPa South 4.6 mph /  7.4 km/h 1.6 mph /  2.6 km/h 82 % 0.00 in /  0 mm
23:54 49.5 °F /  9.7 °C 44.6 °F /  7 °C 30.11 in /  1019.5 hPa South 5.8 mph /  9.3 km/h 3.4 mph /  5.5 km/h 83 % 0.00 in /  0 mm
23:59 49.3 °F /  9.6 °C 44.4 °F /  6.9 °C 30.11 in /  1019.5 hPa South 6.0 mph /  9.7 km/h 4.1 mph /  6.6 km/h 83 % 0.00 in /  0 mm
Ararat Weather
Compliments of Weather Underground - 2.25 mb
Click here to send mail.


ABOUT

Live weather data from Ararat, Victoria, Australia, 3377
Data uploaded from Cumulus every 5 minutes to Weather Underground.
This site then downloads the raw data for formatting and display.
Metric and imperial data can be displayed. Graphs and historical data available.
Includes Sun and Moon times and rain image live from BOM.

Check out Ararat Weather on Facebook, Twitter and Google +

Help support ongoing costs by checking out the ads





Follow @AraratWeather